sensor_id;sensor_type;location;lat;lon;timestamp;pressure;altitude;pressure_sealevel;temperature;humidity
53041;BME280;39326;42.650;23.248;2022-08-19T00:00:26;92439.47;;;21.41;50.01
53041;BME280;39326;42.650;23.248;2022-08-19T00:02:54;92434.16;;;21.38;50.27
53041;BME280;39326;42.650;23.248;2022-08-19T00:05:21;92438.38;;;21.39;50.38
53041;BME280;39326;42.650;23.248;2022-08-19T00:07:49;92443.38;;;21.40;49.84
53041;BME280;39326;42.650;23.248;2022-08-19T00:10:16;92446.09;;;21.40;49.83
53041;BME280;39326;42.650;23.248;2022-08-19T00:12:43;92434.63;;;21.36;49.41
53041;BME280;39326;42.650;23.248;2022-08-19T00:15:13;92448.97;;;21.46;49.83
53041;BME280;39326;42.650;23.248;2022-08-19T00:17:41;92442.31;;;21.47;49.49
53041;BME280;39326;42.650;23.248;2022-08-19T00:20:08;92446.38;;;21.42;49.52
53041;BME280;39326;42.650;23.248;2022-08-19T00:22:37;92454.06;;;21.44;49.44
53041;BME280;39326;42.650;23.248;2022-08-19T00:25:05;92457.53;;;21.44;49.68
53041;BME280;39326;42.650;23.248;2022-08-19T00:27:32;92449.09;;;21.42;49.73
53041;BME280;39326;42.650;23.248;2022-08-19T00:29:58;92462.38;;;21.40;49.80
53041;BME280;39326;42.650;23.248;2022-08-19T00:32:25;92456.03;;;21.43;49.34
53041;BME280;39326;42.650;23.248;2022-08-19T00:34:52;92451.97;;;21.48;49.26
53041;BME280;39326;42.650;23.248;2022-08-19T00:37:21;92456.47;;;21.51;49.04
53041;BME280;39326;42.650;23.248;2022-08-19T00:39:49;92447.13;;;21.52;49.42
53041;BME280;39326;42.650;23.248;2022-08-19T00:42:17;92451.03;;;21.51;49.42
53041;BME280;39326;42.650;23.248;2022-08-19T00:44:44;92438.38;;;21.48;49.49
53041;BME280;39326;42.650;23.248;2022-08-19T00:47:10;92447.44;;;21.45;49.79
53041;BME280;39326;42.650;23.248;2022-08-19T00:49:57;92435.81;;;21.44;49.17
53041;BME280;39326;42.650;23.248;2022-08-19T00:52:27;92445.03;;;21.47;49.23
53041;BME280;39326;42.650;23.248;2022-08-19T00:54:56;92433.44;;;21.46;48.77
53041;BME280;39326;42.650;23.248;2022-08-19T00:57:31;92434.47;;;21.49;49.29
53041;BME280;39326;42.650;23.248;2022-08-19T00:59:59;92430.25;;;21.48;49.11
53041;BME280;39326;42.650;23.248;2022-08-19T01:02:27;92435.22;;;21.49;49.19
53041;BME280;39326;42.650;23.248;2022-08-19T01:04:53;92433.72;;;21.48;49.19
53041;BME280;39326;42.650;23.248;2022-08-19T01:07:20;92438.69;;;21.50;48.86
53041;BME280;39326;42.650;23.248;2022-08-19T01:09:47;92428.28;;;21.48;49.42
53041;BME280;39326;42.650;23.248;2022-08-19T01:12:14;92440.22;;;21.42;49.50
53041;BME280;39326;42.650;23.248;2022-08-19T01:14:41;92435.25;;;21.40;49.51
53041;BME280;39326;42.650;23.248;2022-08-19T01:17:09;92432.97;;;21.39;49.61
53041;BME280;39326;42.650;23.248;2022-08-19T01:19:37;92422.88;;;21.30;49.38
53041;BME280;39326;42.650;23.248;2022-08-19T01:22:12;92430.72;;;21.37;49.74
53041;BME280;39326;42.650;23.248;2022-08-19T01:24:41;92423.16;;;21.32;49.50
53041;BME280;39326;42.650;23.248;2022-08-19T01:27:08;92427.25;;;21.37;49.41
53041;BME280;39326;42.650;23.248;2022-08-19T01:29:38;92424.25;;;21.34;49.84
53041;BME280;39326;42.650;23.248;2022-08-19T01:32:07;92431.16;;;21.35;49.89
53041;BME280;39326;42.650;23.248;2022-08-19T01:34:35;92433.28;;;21.31;49.45
53041;BME280;39326;42.650;23.248;2022-08-19T01:37:10;92421.22;;;21.32;49.77
53041;BME280;39326;42.650;23.248;2022-08-19T01:39:38;92432.97;;;21.29;49.53
53041;BME280;39326;42.650;23.248;2022-08-19T01:42:06;92436.59;;;21.26;49.92
53041;BME280;39326;42.650;23.248;2022-08-19T01:44:33;92438.25;;;21.24;50.15
53041;BME280;39326;42.650;23.248;2022-08-19T01:46:59;92437.50;;;21.23;49.97
53041;BME280;39326;42.650;23.248;2022-08-19T01:49:26;92439.19;;;21.21;50.23
53041;BME280;39326;42.650;23.248;2022-08-19T01:51:53;92440.06;;;21.18;50.20
53041;BME280;39326;42.650;23.248;2022-08-19T01:54:21;92445.50;;;21.18;50.11
53041;BME280;39326;42.650;23.248;2022-08-19T01:56:49;92440.66;;;21.13;50.16
53041;BME280;39326;42.650;23.248;2022-08-19T01:59:19;92437.50;;;21.14;50.34
53041;BME280;39326;42.650;23.248;2022-08-19T02:01:48;92434.66;;;21.08;50.59
53041;BME280;39326;42.650;23.248;2022-08-19T02:04:14;92437.47;;;21.05;50.69
53041;BME280;39326;42.650;23.248;2022-08-19T02:06:40;92436.72;;;21.04;51.13
53041;BME280;39326;42.650;23.248;2022-08-19T02:09:07;92436.56;;;20.99;51.38
53041;BME280;39326;42.650;23.248;2022-08-19T02:11:36;92425.88;;;20.95;50.69
53041;BME280;39326;42.650;23.248;2022-08-19T02:14:06;92432.34;;;20.98;50.60
53041;BME280;39326;42.650;23.248;2022-08-19T02:16:34;92426.63;;;20.96;50.23
53041;BME280;39326;42.650;23.248;2022-08-19T02:19:02;92430.84;;;20.97;50.52
53041;BME280;39326;42.650;23.248;2022-08-19T02:21:29;92433.09;;;20.98;50.07
53041;BME280;39326;42.650;23.248;2022-08-19T02:23:56;92438.53;;;20.98;50.03
53041;BME280;39326;42.650;23.248;2022-08-19T02:26:24;92434.31;;;20.97;49.82
53041;BME280;39326;42.650;23.248;2022-08-19T02:28:52;92434.63;;;20.99;50.18
53041;BME280;39326;42.650;23.248;2022-08-19T02:31:22;92429.47;;;21.01;49.58
53041;BME280;39326;42.650;23.248;2022-08-19T02:33:49;92426.94;;;20.98;49.64
53041;BME280;39326;42.650;23.248;2022-08-19T02:36:17;92429.19;;;20.99;50.16
53041;BME280;39326;42.650;23.248;2022-08-19T02:38:44;92430.25;;;21.02;49.77
53041;BME280;39326;42.650;23.248;2022-08-19T02:41:20;92431.44;;;21.01;50.09
53041;BME280;39326;42.650;23.248;2022-08-19T02:43:48;92433.88;;;20.99;49.56
53041;BME280;39326;42.650;23.248;2022-08-19T02:46:21;92426.00;;;21.01;49.88
53041;BME280;39326;42.650;23.248;2022-08-19T02:48:49;92429.94;;;21.00;49.81
53041;BME280;39326;42.650;23.248;2022-08-19T02:51:22;92420.75;;;20.97;50.42
53041;BME280;39326;42.650;23.248;2022-08-19T02:53:50;92427.41;;;20.96;50.05
53041;BME280;39326;42.650;23.248;2022-08-19T02:56:17;92429.50;;;20.92;50.65
53041;BME280;39326;42.650;23.248;2022-08-19T02:58:44;92433.25;;;20.86;50.37
53041;BME280;39326;42.650;23.248;2022-08-19T03:01:11;92438.38;;;20.84;50.82
53041;BME280;39326;42.650;23.248;2022-08-19T03:03:45;92437.16;;;20.75;50.80
53041;BME280;39326;42.650;23.248;2022-08-19T03:06:14;92433.38;;;20.73;51.44
53041;BME280;39326;42.650;23.248;2022-08-19T03:08:42;92431.72;;;20.66;51.18
53041;BME280;39326;42.650;23.248;2022-08-19T03:11:19;92432.31;;;20.61;51.55
53041;BME280;39326;42.650;23.248;2022-08-19T03:13:47;92432.16;;;20.55;51.84
53041;BME280;39326;42.650;23.248;2022-08-19T03:16:15;92428.53;;;20.49;51.87
53041;BME280;39326;42.650;23.248;2022-08-19T03:18:42;92424.00;;;20.46;52.29
53041;BME280;39326;42.650;23.248;2022-08-19T03:21:08;92421.72;;;20.45;52.38
53041;BME280;39326;42.650;23.248;2022-08-19T03:23:36;92425.06;;;20.40;52.18
53041;BME280;39326;42.650;23.248;2022-08-19T03:26:04;92432.81;;;20.28;52.96
53041;BME280;39326;42.650;23.248;2022-08-19T03:28:31;92430.81;;;20.20;53.02
53041;BME280;39326;42.650;23.248;2022-08-19T03:31:04;92431.25;;;20.18;53.52
53041;BME280;39326;42.650;23.248;2022-08-19T03:33:33;92431.53;;;20.11;53.51
53041;BME280;39326;42.650;23.248;2022-08-19T03:36:15;92433.38;;;20.14;53.27
53041;BME280;39326;42.650;23.248;2022-08-19T03:38:44;92434.25;;;20.11;53.67
53041;BME280;39326;42.650;23.248;2022-08-19T03:41:14;92429.47;;;20.15;52.85
53041;BME280;39326;42.650;23.248;2022-08-19T03:43:42;92436.84;;;20.24;52.60
53041;BME280;39326;42.650;23.248;2022-08-19T03:46:11;92432.50;;;20.26;52.48
53041;BME280;39326;42.650;23.248;2022-08-19T03:48:39;92449.66;;;20.23;53.34
53041;BME280;39326;42.650;23.248;2022-08-19T03:51:06;92443.03;;;20.24;53.14
53041;BME280;39326;42.650;23.248;2022-08-19T03:53:35;92448.00;;;20.26;53.01
53041;BME280;39326;42.650;23.248;2022-08-19T03:56:03;92446.34;;;20.28;52.46
53041;BME280;39326;42.650;23.248;2022-08-19T03:58:30;92452.09;;;20.31;52.39
53041;BME280;39326;42.650;23.248;2022-08-19T04:00:57;92454.19;;;20.26;53.45
53041;BME280;39326;42.650;23.248;2022-08-19T04:03:26;92457.06;;;20.32;53.36
53041;BME280;39326;42.650;23.248;2022-08-19T04:05:53;92460.78;;;20.25;54.05
53041;BME280;39326;42.650;23.248;2022-08-19T04:08:20;92457.53;;;20.31;54.20
53041;BME280;39326;42.650;23.248;2022-08-19T04:10:48;92456.31;;;20.32;54.37
53041;BME280;39326;42.650;23.248;2022-08-19T04:13:16;92460.56;;;20.33;54.58
53041;BME280;39326;42.650;23.248;2022-08-19T04:15:45;92457.84;;;20.33;54.61
53041;BME280;39326;42.650;23.248;2022-08-19T04:18:13;92461.31;;;20.33;54.82
53041;BME280;39326;42.650;23.248;2022-08-19T04:20:46;92465.19;;;20.32;55.88
53041;BME280;39326;42.650;23.248;2022-08-19T04:23:13;92466.53;;;20.27;55.84
53041;BME280;39326;42.650;23.248;2022-08-19T04:25:43;92466.41;;;20.31;55.97
53041;BME280;39326;42.650;23.248;2022-08-19T04:28:11;92468.34;;;20.31;56.73
53041;BME280;39326;42.650;23.248;2022-08-19T04:30:48;92465.19;;;20.32;56.46
53041;BME280;39326;42.650;23.248;2022-08-19T04:33:17;92465.38;;;20.38;57.16
53041;BME280;39326;42.650;23.248;2022-08-19T04:35:46;92472.16;;;20.42;57.36
53041;BME280;39326;42.650;23.248;2022-08-19T04:38:19;92461.50;;;20.48;57.76
53041;BME280;39326;42.650;23.248;2022-08-19T04:40:50;92462.53;;;20.50;57.97
53041;BME280;39326;42.650;23.248;2022-08-19T04:43:37;92463.00;;;20.49;57.21
53041;BME280;39326;42.650;23.248;2022-08-19T04:46:09;92466.47;;;20.49;57.49
53041;BME280;39326;42.650;23.248;2022-08-19T04:48:36;92469.78;;;20.53;57.04
53041;BME280;39326;42.650;23.248;2022-08-19T04:51:07;92471.16;;;20.58;57.39
53041;BME280;39326;42.650;23.248;2022-08-19T04:53:35;92473.88;;;20.58;57.41
53041;BME280;39326;42.650;23.248;2022-08-19T04:56:08;92469.03;;;20.53;57.23
53041;BME280;39326;42.650;23.248;2022-08-19T04:58:36;92474.47;;;20.53;57.72
53041;BME280;39326;42.650;23.248;2022-08-19T05:01:04;92465.25;;;20.50;57.74
53041;BME280;39326;42.650;23.248;2022-08-19T05:03:30;92476.44;;;20.62;57.38
53041;BME280;39326;42.650;23.248;2022-08-19T05:06:08;92476.88;;;20.69;57.23
53041;BME280;39326;42.650;23.248;2022-08-19T05:08:37;92476.59;;;20.76;56.70
53041;BME280;39326;42.650;23.248;2022-08-19T05:11:15;92488.69;;;20.85;56.20
53041;BME280;39326;42.650;23.248;2022-08-19T05:13:43;92476.19;;;20.87;56.02
53041;BME280;39326;42.650;23.248;2022-08-19T05:16:11;92477.84;;;20.94;56.00
53041;BME280;39326;42.650;23.248;2022-08-19T05:18:39;92476.50;;;20.98;56.00
53041;BME280;39326;42.650;23.248;2022-08-19T05:21:25;92480.13;;;21.04;55.63
53041;BME280;39326;42.650;23.248;2022-08-19T05:24:10;92475.94;;;21.13;55.93
53041;BME280;39326;42.650;23.248;2022-08-19T05:26:37;92481.06;;;21.20;56.06
53041;BME280;39326;42.650;23.248;2022-08-19T05:29:05;92483.78;;;21.29;56.03
53041;BME280;39326;42.650;23.248;2022-08-19T05:31:33;92481.22;;;21.34;55.51
53041;BME280;39326;42.650;23.248;2022-08-19T05:33:59;92483.47;;;21.45;56.01
53041;BME280;39326;42.650;23.248;2022-08-19T05:36:26;92480.75;;;21.54;56.17
53041;BME280;39326;42.650;23.248;2022-08-19T05:38:53;92477.44;;;21.59;55.34
53041;BME280;39326;42.650;23.248;2022-08-19T05:41:21;92480.13;;;21.69;55.75
53041;BME280;39326;42.650;23.248;2022-08-19T05:43:48;92485.22;;;21.76;56.15
53041;BME280;39326;42.650;23.248;2022-08-19T05:46:17;92481.03;;;21.84;55.87
53041;BME280;39326;42.650;23.248;2022-08-19T05:48:45;92487.66;;;21.92;55.25
53041;BME280;39326;42.650;23.248;2022-08-19T05:51:11;92481.44;;;22.01;54.98
53041;BME280;39326;42.650;23.248;2022-08-19T05:53:40;92485.66;;;22.11;54.83
53041;BME280;39326;42.650;23.248;2022-08-19T05:56:08;92481.25;;;22.13;54.92
53041;BME280;39326;42.650;23.248;2022-08-19T05:58:36;92480.31;;;22.26;55.19
53041;BME280;39326;42.650;23.248;2022-08-19T06:01:04;92483.44;;;22.33;54.57
53041;BME280;39326;42.650;23.248;2022-08-19T06:03:32;92491.56;;;22.42;54.48
53041;BME280;39326;42.650;23.248;2022-08-19T06:05:59;92497.28;;;22.54;54.33
53041;BME280;39326;42.650;23.248;2022-08-19T06:08:26;92489.72;;;22.49;54.34
53041;BME280;39326;42.650;23.248;2022-08-19T06:10:53;92497.41;;;22.59;54.08
53041;BME280;39326;42.650;23.248;2022-08-19T06:13:19;92492.88;;;22.65;54.03
53041;BME280;39326;42.650;23.248;2022-08-19T06:15:46;92500.06;;;22.78;54.09
53041;BME280;39326;42.650;23.248;2022-08-19T06:18:13;92498.31;;;22.89;53.38
53041;BME280;39326;42.650;23.248;2022-08-19T06:20:41;92497.03;;;23.00;53.32
53041;BME280;39326;42.650;23.248;2022-08-19T06:23:08;92497.09;;;23.14;52.90
53041;BME280;39326;42.650;23.248;2022-08-19T06:25:34;92498.09;;;23.26;52.55
53041;BME280;39326;42.650;23.248;2022-08-19T06:28:00;92496.63;;;23.40;52.33
53041;BME280;39326;42.650;23.248;2022-08-19T06:30:26;92495.22;;;23.44;52.54
53041;BME280;39326;42.650;23.248;2022-08-19T06:32:52;92500.31;;;23.52;52.06
53041;BME280;39326;42.650;23.248;2022-08-19T06:35:21;92505.13;;;23.57;52.13
53041;BME280;39326;42.650;23.248;2022-08-19T06:37:47;92501.75;;;23.62;51.66
53041;BME280;39326;42.650;23.248;2022-08-19T06:40:12;92500.75;;;23.74;51.26
53041;BME280;39326;42.650;23.248;2022-08-19T06:42:39;92498.56;;;23.78;51.63
53041;BME280;39326;42.650;23.248;2022-08-19T06:45:06;92500.66;;;23.83;51.68
53041;BME280;39326;42.650;23.248;2022-08-19T06:47:33;92501.28;;;23.78;52.23
53041;BME280;39326;42.650;23.248;2022-08-19T06:50:00;92503.88;;;23.96;51.61
53041;BME280;39326;42.650;23.248;2022-08-19T06:52:29;92506.41;;;24.00;51.10
53041;BME280;39326;42.650;23.248;2022-08-19T06:54:55;92506.78;;;24.08;50.86
53041;BME280;39326;42.650;23.248;2022-08-19T06:57:25;92507.75;;;24.19;51.02
53041;BME280;39326;42.650;23.248;2022-08-19T06:59:52;92513.84;;;24.29;50.06
53041;BME280;39326;42.650;23.248;2022-08-19T07:02:18;92511.56;;;24.27;49.63
53041;BME280;39326;42.650;23.248;2022-08-19T07:04:44;92514.75;;;24.41;49.66
53041;BME280;39326;42.650;23.248;2022-08-19T07:07:12;92511.56;;;24.57;50.37
53041;BME280;39326;42.650;23.248;2022-08-19T07:09:42;92513.81;;;24.73;49.77
53041;BME280;39326;42.650;23.248;2022-08-19T07:12:10;92504.63;;;24.91;48.83
53041;BME280;39326;42.650;23.248;2022-08-19T07:14:38;92507.75;;;24.84;48.81
53041;BME280;39326;42.650;23.248;2022-08-19T07:17:09;92517.81;;;24.93;49.09
53041;BME280;39326;42.650;23.248;2022-08-19T07:19:37;92512.38;;;25.13;49.46
53041;BME280;39326;42.650;23.248;2022-08-19T07:22:06;92511.94;;;25.20;48.73
53041;BME280;39326;42.650;23.248;2022-08-19T07:24:32;92517.72;;;25.43;47.69
53041;BME280;39326;42.650;23.248;2022-08-19T07:27:01;92516.28;;;25.47;47.99
53041;BME280;39326;42.650;23.248;2022-08-19T07:29:31;92514.66;;;25.55;47.66
53041;BME280;39326;42.650;23.248;2022-08-19T07:31:59;92521.75;;;25.68;46.81
53041;BME280;39326;42.650;23.248;2022-08-19T07:34:28;92516.38;;;25.79;46.81
53041;BME280;39326;42.650;23.248;2022-08-19T07:36:54;92512.13;;;25.98;46.83
53041;BME280;39326;42.650;23.248;2022-08-19T07:39:24;92520.06;;;25.96;46.61
53041;BME280;39326;42.650;23.248;2022-08-19T07:41:51;92516.97;;;26.09;46.40
53041;BME280;39326;42.650;23.248;2022-08-19T07:44:18;92517.13;;;26.26;45.89
53041;BME280;39326;42.650;23.248;2022-08-19T07:46:49;92517.59;;;26.24;46.77
53041;BME280;39326;42.650;23.248;2022-08-19T07:49:18;92520.47;;;26.41;46.76
53041;BME280;39326;42.650;23.248;2022-08-19T07:51:50;92519.19;;;26.62;45.88
53041;BME280;39326;42.650;23.248;2022-08-19T07:54:17;92519.28;;;26.79;44.81
53041;BME280;39326;42.650;23.248;2022-08-19T07:56:43;92524.88;;;26.96;44.59
53041;BME280;39326;42.650;23.248;2022-08-19T07:59:09;92513.44;;;26.98;44.87
53041;BME280;39326;42.650;23.248;2022-08-19T08:01:36;92523.28;;;27.15;44.86
53041;BME280;39326;42.650;23.248;2022-08-19T08:04:03;92525.34;;;27.26;44.39
53041;BME280;39326;42.650;23.248;2022-08-19T08:06:48;92516.41;;;27.31;43.16
53041;BME280;39326;42.650;23.248;2022-08-19T08:09:36;92520.38;;;27.36;42.89
53041;BME280;39326;42.650;23.248;2022-08-19T08:12:11;92518.50;;;27.59;40.92
53041;BME280;39326;42.650;23.248;2022-08-19T08:14:48;92524.56;;;27.80;40.48
53041;BME280;39326;42.650;23.248;2022-08-19T08:17:19;92519.13;;;27.91;40.19
53041;BME280;39326;42.650;23.248;2022-08-19T08:19:46;92505.47;;;28.13;39.74
53041;BME280;39326;42.650;23.248;2022-08-19T08:22:15;92517.22;;;28.47;38.08
53041;BME280;39326;42.650;23.248;2022-08-19T08:25:04;92522.47;;;28.57;37.85
53041;BME280;39326;42.650;23.248;2022-08-19T08:27:30;92515.00;;;28.57;36.67
53041;BME280;39326;42.650;23.248;2022-08-19T08:29:57;92511.47;;;28.79;36.89
53041;BME280;39326;42.650;23.248;2022-08-19T08:32:24;92515.72;;;28.91;36.52
53041;BME280;39326;42.650;23.248;2022-08-19T08:34:50;92511.50;;;28.90;36.50
53041;BME280;39326;42.650;23.248;2022-08-19T08:37:17;92513.72;;;28.92;36.24
53041;BME280;39326;42.650;23.248;2022-08-19T08:39:43;92509.47;;;29.13;35.83
53041;BME280;39326;42.650;23.248;2022-08-19T08:42:22;92509.41;;;29.24;34.44
53041;BME280;39326;42.650;23.248;2022-08-19T08:45:05;92504.41;;;29.34;33.39
53041;BME280;39326;42.650;23.248;2022-08-19T08:47:35;92504.88;;;29.44;34.44
53041;BME280;39326;42.650;23.248;2022-08-19T08:50:13;92508.63;;;29.41;33.69
53041;BME280;39326;42.650;23.248;2022-08-19T08:52:45;92508.03;;;29.70;33.33
53041;BME280;39326;42.650;23.248;2022-08-19T08:55:15;92493.72;;;29.83;33.16
53041;BME280;39326;42.650;23.248;2022-08-19T09:00:36;92497.47;;;29.80;31.17
53041;BME280;39326;42.650;23.248;2022-08-19T09:03:08;92498.91;;;29.92;32.46
53041;BME280;39326;42.650;23.248;2022-08-19T09:06:06;92497.34;;;30.08;33.96
53041;BME280;39326;42.650;23.248;2022-08-19T09:08:48;92495.94;;;30.31;31.68
53041;BME280;39326;42.650;23.248;2022-08-19T12:11:40;92376.91;;;34.81;24.20
53041;BME280;39326;42.650;23.248;2022-08-19T12:14:09;92369.63;;;34.70;24.42
53041;BME280;39326;42.650;23.248;2022-08-19T12:16:35;92373.78;;;34.84;24.67
53041;BME280;39326;42.650;23.248;2022-08-19T12:19:03;92366.91;;;34.78;24.31
53041;BME280;39326;42.650;23.248;2022-08-19T12:21:31;92365.00;;;35.01;23.82
53041;BME280;39326;42.650;23.248;2022-08-19T12:23:58;92366.69;;;35.33;22.82
53041;BME280;39326;42.650;23.248;2022-08-19T12:26:26;92365.06;;;35.45;22.65
53041;BME280;39326;42.650;23.248;2022-08-19T12:28:53;92362.56;;;35.18;22.78
53041;BME280;39326;42.650;23.248;2022-08-19T12:31:19;92355.88;;;35.14;22.82
53041;BME280;39326;42.650;23.248;2022-08-19T12:33:45;92355.00;;;35.27;23.00
53041;BME280;39326;42.650;23.248;2022-08-19T12:36:12;92358.09;;;35.59;22.45
53041;BME280;39326;42.650;23.248;2022-08-19T12:38:38;92349.25;;;35.68;23.39
53041;BME280;39326;42.650;23.248;2022-08-19T12:41:05;92350.63;;;35.39;22.09
53041;BME280;39326;42.650;23.248;2022-08-19T12:43:35;92345.91;;;35.55;22.35
53041;BME280;39326;42.650;23.248;2022-08-19T12:46:02;92349.63;;;35.65;22.85
53041;BME280;39326;42.650;23.248;2022-08-19T12:48:29;92342.09;;;35.88;23.37
53041;BME280;39326;42.650;23.248;2022-08-19T12:50:55;92351.72;;;35.95;23.63
53041;BME280;39326;42.650;23.248;2022-08-19T12:53:21;92343.25;;;36.01;24.08
53041;BME280;39326;42.650;23.248;2022-08-19T12:55:47;92338.03;;;35.38;22.95
53041;BME280;39326;42.650;23.248;2022-08-19T12:58:12;92337.72;;;35.49;24.42
53041;BME280;39326;42.650;23.248;2022-08-19T13:00:38;92341.31;;;35.72;23.87
53041;BME280;39326;42.650;23.248;2022-08-19T13:03:04;92343.25;;;36.01;22.50
53041;BME280;39326;42.650;23.248;2022-08-19T13:05:31;92336.41;;;36.24;21.53
53041;BME280;39326;42.650;23.248;2022-08-19T13:07:58;92340.09;;;36.04;22.22
53041;BME280;39326;42.650;23.248;2022-08-19T13:10:29;92331.38;;;35.92;22.03
53041;BME280;39326;42.650;23.248;2022-08-19T13:12:55;92327.28;;;35.86;21.88
53041;BME280;39326;42.650;23.248;2022-08-19T13:15:22;92325.84;;;36.00;22.88
53041;BME280;39326;42.650;23.248;2022-08-19T13:17:49;92315.22;;;35.76;21.67
53041;BME280;39326;42.650;23.248;2022-08-19T13:20:17;92318.03;;;35.98;22.41
53041;BME280;39326;42.650;23.248;2022-08-19T13:22:44;92319.31;;;35.90;22.95
53041;BME280;39326;42.650;23.248;2022-08-19T13:25:12;92315.63;;;35.95;22.27
53041;BME280;39326;42.650;23.248;2022-08-19T13:27:38;92317.66;;;35.79;21.98
53041;BME280;39326;42.650;23.248;2022-08-19T13:30:06;92305.84;;;36.02;22.43
53041;BME280;39326;42.650;23.248;2022-08-19T13:32:51;92315.09;;;36.04;22.90
53041;BME280;39326;42.650;23.248;2022-08-19T13:35:35;92315.47;;;36.16;22.54
53041;BME280;39326;42.650;23.248;2022-08-19T13:38:00;92313.28;;;36.30;22.70
53041;BME280;39326;42.650;23.248;2022-08-19T13:40:31;92309.56;;;36.19;21.68
53041;BME280;39326;42.650;23.248;2022-08-19T13:42:59;92303.44;;;36.13;21.74
53041;BME280;39326;42.650;23.248;2022-08-19T13:45:27;92300.47;;;36.34;21.47
53041;BME280;39326;42.650;23.248;2022-08-19T13:47:55;92292.50;;;36.15;21.79
53041;BME280;39326;42.650;23.248;2022-08-19T13:50:23;92290.28;;;36.14;22.56
53041;BME280;39326;42.650;23.248;2022-08-19T13:52:54;92287.16;;;36.25;22.51
53041;BME280;39326;42.650;23.248;2022-08-19T13:55:21;92287.50;;;36.44;22.89
53041;BME280;39326;42.650;23.248;2022-08-19T13:57:54;92291.03;;;36.45;22.78
53041;BME280;39326;42.650;23.248;2022-08-19T14:00:21;92289.19;;;36.55;22.23
53041;BME280;39326;42.650;23.248;2022-08-19T14:02:50;92281.94;;;36.29;22.96
53041;BME280;39326;42.650;23.248;2022-08-19T14:05:17;92284.69;;;35.83;22.59
53041;BME280;39326;42.650;23.248;2022-08-19T14:07:43;92279.88;;;35.61;22.78
53041;BME280;39326;42.650;23.248;2022-08-19T14:10:12;92291.91;;;35.79;22.87
53041;BME280;39326;42.650;23.248;2022-08-19T14:12:38;92285.97;;;35.67;22.87
53041;BME280;39326;42.650;23.248;2022-08-19T14:15:05;92288.38;;;35.55;23.26
53041;BME280;39326;42.650;23.248;2022-08-19T14:17:31;92287.22;;;35.51;23.83
53041;BME280;39326;42.650;23.248;2022-08-19T14:20:03;92284.03;;;34.95;23.51
53041;BME280;39326;42.650;23.248;2022-08-19T14:22:37;92283.44;;;34.89;24.10
53041;BME280;39326;42.650;23.248;2022-08-19T14:25:04;92280.75;;;35.04;23.42
53041;BME280;39326;42.650;23.248;2022-08-19T14:27:33;92278.09;;;35.35;23.19
53041;BME280;39326;42.650;23.248;2022-08-19T14:29:58;92281.34;;;35.62;23.58
53041;BME280;39326;42.650;23.248;2022-08-19T14:32:24;92274.69;;;35.72;22.96
53041;BME280;39326;42.650;23.248;2022-08-19T14:34:52;92282.25;;;35.72;23.13
53041;BME280;39326;42.650;23.248;2022-08-19T14:37:18;92275.63;;;35.75;22.49
53041;BME280;39326;42.650;23.248;2022-08-19T14:39:44;92276.69;;;35.57;23.15
53041;BME280;39326;42.650;23.248;2022-08-19T14:42:10;92276.28;;;35.53;22.12
53041;BME280;39326;42.650;23.248;2022-08-19T14:44:37;92278.91;;;35.58;22.77
53041;BME280;39326;42.650;23.248;2022-08-19T14:47:03;92274.78;;;35.44;23.17
53041;BME280;39326;42.650;23.248;2022-08-19T14:49:28;92266.69;;;35.54;24.28
53041;BME280;39326;42.650;23.248;2022-08-19T14:51:54;92262.56;;;35.32;23.37
53041;BME280;39326;42.650;23.248;2022-08-19T14:54:20;92261.97;;;35.18;23.07
53041;BME280;39326;42.650;23.248;2022-08-19T14:56:46;92261.19;;;35.10;23.82
53041;BME280;39326;42.650;23.248;2022-08-19T14:59:11;92261.66;;;34.93;24.02
53041;BME280;39326;42.650;23.248;2022-08-19T15:01:37;92259.50;;;34.71;23.43
53041;BME280;39326;42.650;23.248;2022-08-19T15:04:03;92256.63;;;34.55;23.13
53041;BME280;39326;42.650;23.248;2022-08-19T15:06:28;92259.28;;;34.61;23.77
53041;BME280;39326;42.650;23.248;2022-08-19T15:08:54;92265.41;;;34.38;24.01
53041;BME280;39326;42.650;23.248;2022-08-19T15:11:22;92261.16;;;34.37;25.47
53041;BME280;39326;42.650;23.248;2022-08-19T15:13:48;92256.63;;;34.27;25.00
53041;BME280;39326;42.650;23.248;2022-08-19T15:16:16;92252.97;;;34.32;24.77
53041;BME280;39326;42.650;23.248;2022-08-19T15:18:42;92258.66;;;34.26;25.23
53041;BME280;39326;42.650;23.248;2022-08-19T15:21:12;92251.66;;;34.25;24.32
53041;BME280;39326;42.650;23.248;2022-08-19T15:23:39;92251.91;;;34.35;24.89
53041;BME280;39326;42.650;23.248;2022-08-19T15:26:05;92255.84;;;34.19;25.92
53041;BME280;39326;42.650;23.248;2022-08-19T15:28:31;92248.66;;;34.16;25.78
53041;BME280;39326;42.650;23.248;2022-08-19T15:30:57;92257.28;;;34.12;26.13
53041;BME280;39326;42.650;23.248;2022-08-19T15:33:23;92245.22;;;34.30;25.68
53041;BME280;39326;42.650;23.248;2022-08-19T15:35:49;92244.66;;;34.32;25.40
53041;BME280;39326;42.650;23.248;2022-08-19T15:38:16;92241.94;;;34.39;25.46
53041;BME280;39326;42.650;23.248;2022-08-19T15:40:44;92242.69;;;34.40;25.10
53041;BME280;39326;42.650;23.248;2022-08-19T15:43:10;92249.97;;;34.22;25.25
53041;BME280;39326;42.650;23.248;2022-08-19T15:45:35;92237.59;;;34.02;25.57
53041;BME280;39326;42.650;23.248;2022-08-19T15:48:02;92245.72;;;34.00;27.56
53041;BME280;39326;42.650;23.248;2022-08-19T15:50:30;92247.84;;;33.86;25.99
53041;BME280;39326;42.650;23.248;2022-08-19T15:53:03;92245.13;;;33.73;26.06
53041;BME280;39326;42.650;23.248;2022-08-19T15:55:31;92247.94;;;33.60;26.79
53041;BME280;39326;42.650;23.248;2022-08-19T15:57:58;92250.56;;;33.45;26.88
53041;BME280;39326;42.650;23.248;2022-08-19T16:00:42;92248.31;;;33.22;27.50